createdAt,value
2022-09-26T00:04:40.057Z,11.61
2022-09-26T00:10:00.917Z,11.53
2022-09-26T00:15:21.345Z,11.66
2022-09-26T00:20:42.118Z,11.78
2022-09-26T00:26:03.728Z,11.86
2022-09-26T00:31:28.599Z,12.00
2022-09-26T00:36:49.552Z,12.13
2022-09-26T00:42:14.051Z,12.23
2022-09-26T00:47:52.237Z,12.36
2022-09-26T00:53:17.913Z,12.28
2022-09-26T00:58:45.865Z,12.27
2022-09-26T01:04:07.656Z,12.29
2022-09-26T01:09:29.440Z,12.33
2022-09-26T01:14:55.007Z,12.40
2022-09-26T01:20:31.287Z,12.57
2022-09-26T01:26:26.167Z,12.69
2022-09-26T01:32:31.800Z,12.81
2022-09-26T01:38:32.376Z,12.78
2022-09-26T01:44:41.458Z,12.74
2022-09-26T01:50:21.627Z,12.72
2022-09-26T01:56:06.512Z,12.69
2022-09-26T02:01:29.440Z,12.78
2022-09-26T02:06:56.076Z,12.71
2022-09-26T02:12:23.534Z,12.76
2022-09-26T02:17:49.264Z,12.72
2022-09-26T02:23:11.233Z,12.63
2022-09-26T02:28:32.080Z,12.63
2022-09-26T02:33:54.911Z,12.62
2022-09-26T02:39:17.301Z,12.63
2022-09-26T02:45:12.044Z,12.59
2022-09-26T02:50:53.487Z,12.59
2022-09-26T02:56:40.888Z,12.61
2022-09-26T03:02:15.731Z,12.59
2022-09-26T03:07:51.036Z,12.56
2022-09-26T03:13:14.945Z,12.51
2022-09-26T03:18:46.791Z,12.41
2022-09-26T03:24:07.213Z,12.33
2022-09-26T03:29:28.260Z,12.28
2022-09-26T03:34:49.142Z,12.27
2022-09-26T03:40:11.589Z,12.29
2022-09-26T03:46:06.857Z,12.41
2022-09-26T03:51:28.348Z,12.45
2022-09-26T03:56:48.913Z,12.54
2022-09-26T04:02:10.693Z,12.64
2022-09-26T04:07:36.405Z,12.71
2022-09-26T04:12:56.996Z,12.74
2022-09-26T04:18:18.828Z,12.78
2022-09-26T04:23:41.714Z,12.81
2022-09-26T04:29:03.204Z,12.82
2022-09-26T04:34:45.481Z,12.78
2022-09-26T04:40:06.625Z,12.77
2022-09-26T04:45:31.860Z,12.69
2022-09-26T04:50:52.729Z,12.55
2022-09-26T04:56:15.845Z,12.55
2022-09-26T05:01:37.487Z,12.66
2022-09-26T05:07:05.744Z,12.69
2022-09-26T05:12:27.023Z,12.41
2022-09-26T05:17:48.908Z,12.29
2022-09-26T05:23:10.629Z,12.23
2022-09-26T05:28:32.740Z,12.02
2022-09-26T05:33:57.074Z,11.95
2022-09-26T05:39:40.299Z,11.87
2022-09-26T05:45:05.342Z,11.88
2022-09-26T05:50:26.007Z,11.91
2022-09-26T05:55:51.280Z,11.98
2022-09-26T06:01:27.106Z,12.09
2022-09-26T06:06:59.017Z,12.07
2022-09-26T06:12:21.227Z,12.07
2022-09-26T06:17:41.966Z,12.10
2022-09-26T06:23:04.212Z,12.13
2022-09-26T06:28:27.578Z,12.18
2022-09-26T06:33:53.252Z,12.24
2022-09-26T06:39:35.546Z,12.23
2022-09-26T06:44:56.637Z,12.18
2022-09-26T06:50:18.420Z,12.16
2022-09-26T06:55:45.552Z,12.26
2022-09-26T07:01:06.785Z,12.29
2022-09-26T07:06:37.262Z,12.33
2022-09-26T07:12:15.809Z,12.42
2022-09-26T07:17:36.964Z,12.52
2022-09-26T07:23:05.679Z,12.63
2022-09-26T07:28:27.825Z,12.60
2022-09-26T07:33:48.489Z,12.66
2022-09-26T07:39:09.415Z,12.74
2022-09-26T07:45:17.087Z,12.77
2022-09-26T07:50:15.682Z,12.81
2022-09-26T07:56:12.105Z,12.81
2022-09-26T08:01:52.850Z,12.81
2022-09-26T08:07:32.700Z,12.76
2022-09-26T08:13:04.135Z,12.79
2022-09-26T08:18:43.454Z,12.88
2022-09-26T08:24:03.755Z,12.93
2022-09-26T08:29:49.765Z,12.86
2022-09-26T08:35:14.752Z,12.93
2022-09-26T08:40:59.485Z,13.04
2022-09-26T08:47:00.226Z,13.10
2022-09-26T08:53:04.804Z,13.11
2022-09-26T08:58:52.213Z,13.02
2022-09-26T09:04:20.701Z,12.97
2022-09-26T09:09:42.232Z,13.04
2022-09-26T09:15:29.250Z,12.93
2022-09-26T09:21:31.639Z,12.97
2022-09-26T09:28:02.502Z,13.08
2022-09-26T09:33:37.131Z,13.14
2022-09-26T09:39:36.747Z,13.43
2022-09-26T09:45:19.756Z,13.26
2022-09-26T09:51:02.351Z,13.06
2022-09-26T09:56:45.455Z,12.93
2022-09-26T10:02:31.962Z,12.79
2022-09-26T10:07:57.952Z,12.72
2022-09-26T10:13:42.179Z,12.68
2022-09-26T10:19:14.858Z,12.71
2022-09-26T10:25:32.590Z,12.71
2022-09-26T10:31:00.226Z,12.72
2022-09-26T10:36:36.348Z,12.71
2022-09-26T10:41:59.314Z,12.69
2022-09-26T10:47:24.639Z,12.55
2022-09-26T10:53:08.952Z,12.31
2022-09-26T10:58:32.356Z,12.29
2022-09-26T11:04:15.359Z,12.27
2022-09-26T11:10:01.973Z,12.38
2022-09-26T11:15:33.790Z,12.37
2022-09-26T11:21:23.075Z,12.32
2022-09-26T11:27:14.263Z,12.32
2022-09-26T11:32:40.914Z,12.35
2022-09-26T11:38:55.805Z,12.28
2022-09-26T11:44:46.824Z,12.09
2022-09-26T11:50:23.548Z,11.98
2022-09-26T11:56:20.101Z,11.88
2022-09-26T12:02:19.425Z,11.95
2022-09-26T12:07:55.350Z,11.94
2022-09-26T12:13:29.797Z,11.93
2022-09-26T12:19:05.619Z,11.98
2022-09-26T12:24:36.304Z,11.99
2022-09-26T12:30:14.369Z,11.98
2022-09-26T12:35:58.258Z,11.98
2022-09-26T12:41:46.153Z,11.97
2022-09-26T12:47:28.392Z,11.82
2022-09-26T12:52:55.068Z,11.86
2022-09-26T12:58:33.968Z,11.98
2022-09-26T13:04:00.424Z,12.05
2022-09-26T13:09:36.883Z,12.04
2022-09-26T13:15:18.700Z,11.95
2022-09-26T13:20:45.621Z,11.87
2022-09-26T13:26:14.479Z,11.90
2022-09-26T13:32:11.835Z,11.86
2022-09-26T13:37:56.673Z,11.84
2022-09-26T13:43:43.604Z,11.81
2022-09-26T13:49:17.313Z,11.77
2022-09-26T13:55:02.208Z,11.81
2022-09-26T14:00:30.158Z,11.79
2022-09-26T14:05:52.808Z,11.78
2022-09-26T14:11:19.530Z,11.81
2022-09-26T14:16:40.000Z,11.79
2022-09-26T14:22:03.294Z,11.80
2022-09-26T14:27:25.631Z,11.91
2022-09-26T14:32:46.798Z,12.02
2022-09-26T14:38:20.444Z,12.08
2022-09-26T14:43:41.404Z,12.22
2022-09-26T14:49:05.396Z,12.31
2022-09-26T14:54:34.681Z,12.43
2022-09-26T14:59:55.688Z,12.51
2022-09-26T15:05:23.469Z,12.53
2022-09-26T15:10:45.484Z,12.54
2022-09-26T15:16:33.435Z,12.60
2022-09-26T15:22:13.134Z,12.66
2022-09-26T15:27:33.939Z,12.75
2022-09-26T15:32:58.608Z,12.77
2022-09-26T15:38:19.829Z,12.83
2022-09-26T15:43:40.802Z,12.94
2022-09-26T15:49:01.467Z,13.10
2022-09-26T15:54:30.653Z,13.08
2022-09-26T15:59:51.087Z,13.09
2022-09-26T16:05:13.290Z,13.08
2022-09-26T16:10:33.988Z,13.07
2022-09-26T16:16:07.337Z,13.06
2022-09-26T16:21:33.652Z,13.08
2022-09-26T16:26:56.257Z,13.04
2022-09-26T16:32:20.976Z,13.05
2022-09-26T16:37:42.266Z,13.07
2022-09-26T16:43:28.449Z,13.06
2022-09-26T16:48:51.818Z,13.02
2022-09-26T16:54:22.273Z,12.99
2022-09-26T16:59:43.094Z,12.84
2022-09-26T17:05:06.487Z,12.91
2022-09-26T17:10:27.655Z,12.68
2022-09-26T17:15:50.684Z,12.43
2022-09-26T17:21:17.113Z,12.47
2022-09-26T17:26:38.182Z,12.42
2022-09-26T17:31:59.966Z,12.33
2022-09-26T17:37:22.062Z,12.32
2022-09-26T17:42:42.696Z,12.38
2022-09-26T17:48:14.216Z,12.41
2022-09-26T17:53:43.340Z,12.43
2022-09-26T17:59:18.479Z,12.47
2022-09-26T18:04:41.200Z,12.46
2022-09-26T18:10:06.589Z,12.41
2022-09-26T18:15:29.563Z,12.39
2022-09-26T18:20:52.485Z,12.39
2022-09-26T18:26:25.171Z,12.35
2022-09-26T18:31:46.373Z,12.33
2022-09-26T18:37:06.802Z,12.11
2022-09-26T18:42:28.065Z,11.91
2022-09-26T18:47:49.174Z,11.80
2022-09-26T18:53:14.624Z,11.74
2022-09-26T18:58:35.564Z,11.78
2022-09-26T19:03:58.889Z,11.81
2022-09-26T19:09:21.384Z,11.85
2022-09-26T19:14:42.254Z,11.92
2022-09-26T19:20:02.858Z,11.87
2022-09-26T19:25:23.921Z,11.86
2022-09-26T19:30:44.742Z,11.80
2022-09-26T19:36:05.537Z,11.78
2022-09-26T19:41:26.424Z,11.81
2022-09-26T19:46:47.430Z,11.86
2022-09-26T19:52:14.832Z,11.91
2022-09-26T19:57:35.322Z,11.98
2022-09-26T20:02:55.982Z,12.00
2022-09-26T20:16:14.738Z,12.06
2022-09-26T20:21:35.287Z,12.12
2022-09-26T20:26:56.594Z,12.17
2022-09-26T20:32:17.304Z,12.20
2022-09-26T20:37:40.111Z,12.15
2022-09-26T20:43:04.030Z,12.13
2022-09-26T20:48:27.862Z,12.11
2022-09-26T20:53:48.279Z,12.13
2022-09-26T20:59:08.853Z,12.13
2022-09-26T21:04:32.579Z,12.11
2022-09-26T21:09:53.060Z,12.13
2022-09-26T21:15:13.495Z,12.09
2022-09-26T21:20:34.617Z,12.04
2022-09-26T21:26:22.320Z,11.97
2022-09-26T21:31:48.451Z,11.85
2022-09-26T21:37:10.576Z,11.86
2022-09-26T21:42:30.984Z,11.81
2022-09-26T21:47:51.967Z,11.79
2022-09-26T21:53:21.103Z,11.82
2022-09-26T21:58:42.125Z,11.80
2022-09-26T22:04:02.689Z,11.81
2022-09-26T22:09:23.063Z,11.83
2022-09-26T22:14:43.645Z,11.88
2022-09-26T22:20:05.605Z,11.86
2022-09-26T22:25:26.236Z,11.80
2022-09-26T22:30:46.751Z,11.74
2022-09-26T22:36:08.193Z,11.70
2022-09-26T22:41:28.555Z,11.68
2022-09-26T22:46:48.834Z,11.66
2022-09-26T22:52:09.647Z,11.63
2022-09-26T22:57:32.606Z,11.60
2022-09-26T23:02:53.504Z,11.58
2022-09-26T23:08:13.954Z,11.59
2022-09-26T23:13:35.527Z,11.62
2022-09-26T23:18:57.449Z,11.61
2022-09-26T23:24:18.211Z,11.60
2022-09-26T23:29:39.062Z,11.59
2022-09-26T23:34:59.766Z,11.62
2022-09-26T23:40:20.734Z,11.67
2022-09-26T23:45:41.889Z,11.75
2022-09-26T23:51:02.951Z,11.84
2022-09-26T23:56:23.698Z,11.88
